createdAt,value
2023-04-19T00:01:09.863Z,44.70
2023-04-19T00:03:36.626Z,45.25
2023-04-19T00:06:03.527Z,45.16
2023-04-19T00:08:30.017Z,44.76
2023-04-19T00:10:56.479Z,44.77
2023-04-19T00:13:22.959Z,45.13
2023-04-19T00:15:49.476Z,45.31
2023-04-19T00:18:15.965Z,45.00
2023-04-19T00:20:42.494Z,44.66
2023-04-19T00:23:08.939Z,44.52
2023-04-19T00:25:35.421Z,44.62
2023-04-19T00:28:01.873Z,44.44
2023-04-19T00:30:28.407Z,44.49
2023-04-19T00:32:54.968Z,44.41
2023-04-19T00:35:21.500Z,44.49
2023-04-19T00:37:48.011Z,44.77
2023-04-19T00:40:14.700Z,44.50
2023-04-19T00:42:41.226Z,44.78
2023-04-19T00:45:08.344Z,45.25
2023-04-19T00:47:35.931Z,45.00
2023-04-19T00:50:04.222Z,45.33
2023-04-19T00:52:32.576Z,45.89
2023-04-19T00:54:59.089Z,46.12
2023-04-19T00:57:25.636Z,46.21
2023-04-19T00:59:52.168Z,46.03
2023-04-19T01:02:18.688Z,46.16
2023-04-19T01:04:45.182Z,46.16
2023-04-19T01:07:11.716Z,46.27
2023-04-19T01:09:43.940Z,46.40
2023-04-19T01:12:10.430Z,46.36
2023-04-19T01:14:36.909Z,46.62
2023-04-19T01:17:03.421Z,46.26
2023-04-19T01:19:29.906Z,46.56
2023-04-19T01:21:56.382Z,46.80
2023-04-19T01:24:22.977Z,47.01
2023-04-19T01:26:49.435Z,46.63
2023-04-19T01:29:15.912Z,46.33
2023-04-19T01:31:42.491Z,46.24
2023-04-19T01:34:09.019Z,46.35
2023-04-19T01:36:35.517Z,46.18
2023-04-19T01:39:01.999Z,46.15
2023-04-19T01:41:28.460Z,46.19
2023-04-19T01:43:54.955Z,46.38
2023-04-19T01:46:21.452Z,46.53
2023-04-19T01:48:47.920Z,46.78
2023-04-19T01:51:14.393Z,47.13
2023-04-19T01:53:40.925Z,46.74
2023-04-19T01:56:07.698Z,46.97
2023-04-19T01:58:34.247Z,47.71
2023-04-19T02:01:00.759Z,47.62
2023-04-19T02:03:27.386Z,46.99
2023-04-19T02:05:54.021Z,46.99
2023-04-19T02:08:20.538Z,47.06
2023-04-19T02:10:47.036Z,47.82
2023-04-19T02:13:13.523Z,47.10
2023-04-19T02:15:39.983Z,46.44
2023-04-19T02:18:06.554Z,46.46
2023-04-19T02:20:33.504Z,46.90
2023-04-19T02:22:59.953Z,46.59
2023-04-19T02:25:26.394Z,47.02
2023-04-19T02:27:52.848Z,47.66
2023-04-19T02:30:19.398Z,47.53
2023-04-19T02:32:48.372Z,47.43
2023-04-19T02:35:14.870Z,47.36
2023-04-19T02:37:42.014Z,47.36
2023-04-19T02:40:08.970Z,47.72
2023-04-19T02:42:35.500Z,47.82
2023-04-19T02:45:01.996Z,47.03
2023-04-19T02:47:28.558Z,47.66
2023-04-19T02:49:55.022Z,47.63
2023-04-19T02:52:21.474Z,47.84
2023-04-19T02:54:48.298Z,47.41
2023-04-19T02:57:14.784Z,46.93
2023-04-19T02:59:41.226Z,47.10
2023-04-19T03:02:07.758Z,46.64
2023-04-19T03:04:34.456Z,45.98
2023-04-19T03:07:01.024Z,45.65
2023-04-19T03:09:27.564Z,45.52
2023-04-19T03:11:54.004Z,45.93
2023-04-19T03:14:20.509Z,46.45
2023-04-19T03:16:46.994Z,46.40
2023-04-19T03:19:13.458Z,46.42
2023-04-19T03:21:39.947Z,46.86
2023-04-19T03:24:06.615Z,46.98
2023-04-19T03:26:33.088Z,47.12
2023-04-19T03:28:59.556Z,47.24
2023-04-19T03:31:26.087Z,47.42
2023-04-19T03:33:52.612Z,47.93
2023-04-19T03:36:19.147Z,47.90
2023-04-19T03:38:45.628Z,48.23
2023-04-19T03:41:22.918Z,48.28
2023-04-19T03:43:49.576Z,48.28
2023-04-19T03:46:16.070Z,48.60
2023-04-19T03:48:42.577Z,48.99
2023-04-19T03:51:09.177Z,49.59
2023-04-19T03:53:36.722Z,49.86
2023-04-19T03:56:03.389Z,50.10
2023-04-19T03:58:29.870Z,50.55
2023-04-19T04:00:56.359Z,50.94
2023-04-19T04:03:23.090Z,51.40
2023-04-19T04:05:49.771Z,51.84
2023-04-19T04:08:16.436Z,52.41
2023-04-19T04:10:42.915Z,52.54
2023-04-19T04:13:09.479Z,52.94
2023-04-19T04:15:35.997Z,53.17
2023-04-19T04:18:02.598Z,53.39
2023-04-19T04:20:29.164Z,53.87
2023-04-19T04:22:55.616Z,54.17
2023-04-19T04:25:23.223Z,54.20
2023-04-19T04:27:52.915Z,54.47
2023-04-19T04:30:19.515Z,54.62
2023-04-19T04:32:46.259Z,54.75
2023-04-19T04:35:13.227Z,55.28
2023-04-19T04:37:39.677Z,55.32
2023-04-19T04:40:06.848Z,54.99
2023-04-19T04:42:33.355Z,54.71
2023-04-19T04:45:00.184Z,54.46
2023-04-19T04:47:31.191Z,54.26
2023-04-19T04:49:57.799Z,54.37
2023-04-19T04:52:24.286Z,53.89
2023-04-19T04:54:50.768Z,53.81
2023-04-19T04:57:17.266Z,53.75
2023-04-19T04:59:43.757Z,53.92
2023-04-19T05:02:10.219Z,53.57
2023-04-19T05:04:36.736Z,53.76
2023-04-19T05:07:03.244Z,53.79
2023-04-19T05:09:29.763Z,53.73
2023-04-19T05:11:56.318Z,53.55
2023-04-19T05:14:22.834Z,53.44
2023-04-19T05:16:49.383Z,53.50
2023-04-19T05:19:15.961Z,53.50
2023-04-19T05:21:42.435Z,53.63
2023-04-19T05:24:08.977Z,53.62
2023-04-19T05:26:35.648Z,53.55
2023-04-19T05:29:02.167Z,53.59
2023-04-19T05:31:28.666Z,53.41
2023-04-19T05:33:55.213Z,53.26
2023-04-19T05:36:21.760Z,52.79
2023-04-19T05:38:48.227Z,52.31
2023-04-19T05:41:15.800Z,51.93
2023-04-19T05:43:42.267Z,51.44
2023-04-19T05:46:08.775Z,51.28
2023-04-19T05:48:35.255Z,51.15
2023-04-19T05:51:01.751Z,50.98
2023-04-19T05:53:28.205Z,51.09
2023-04-19T05:55:54.714Z,50.40
2023-04-19T05:58:21.216Z,49.84
2023-04-19T06:00:47.792Z,50.07
2023-04-19T06:03:14.490Z,49.74
2023-04-19T06:05:41.349Z,49.67
2023-04-19T06:08:07.942Z,48.86
2023-04-19T06:10:51.384Z,48.44
2023-04-19T06:13:20.901Z,48.19
2023-04-19T06:15:48.122Z,47.98
2023-04-19T06:18:19.006Z,47.60
2023-04-19T06:20:46.454Z,47.60
2023-04-19T06:23:12.929Z,47.35
2023-04-19T06:25:39.387Z,47.30
2023-04-19T06:28:05.919Z,47.10
2023-04-19T06:30:32.412Z,46.90
2023-04-19T06:32:58.921Z,46.03
2023-04-19T06:35:25.581Z,45.71
2023-04-19T06:37:52.174Z,45.75
2023-04-19T06:40:18.955Z,45.60
2023-04-19T06:42:45.421Z,45.75
2023-04-19T06:45:11.989Z,44.32
2023-04-19T06:47:38.668Z,44.41
2023-04-19T06:50:05.789Z,44.39
2023-04-19T06:52:32.281Z,44.28
2023-04-19T06:54:58.773Z,43.76
2023-04-19T06:57:25.234Z,43.98
2023-04-19T06:59:51.963Z,43.80
2023-04-19T07:02:18.553Z,43.71
2023-04-19T07:04:45.352Z,43.91
2023-04-19T07:07:12.067Z,43.78
2023-04-19T07:09:38.539Z,43.83
2023-04-19T07:12:06.274Z,44.35
2023-04-19T07:14:32.747Z,44.00
2023-04-19T07:16:59.342Z,43.75
2023-04-19T07:19:25.905Z,43.24
2023-04-19T07:21:52.349Z,43.40
2023-04-19T07:24:18.852Z,42.98
2023-04-19T07:26:45.389Z,42.78
2023-04-19T07:29:14.053Z,42.69
2023-04-19T07:31:40.562Z,42.13
2023-04-19T07:34:07.131Z,41.85
2023-04-19T07:36:33.616Z,41.79
2023-04-19T07:39:00.083Z,40.75
2023-04-19T07:41:26.574Z,39.72
2023-04-19T07:43:53.078Z,39.04
2023-04-19T07:46:19.648Z,38.38
2023-04-19T07:48:46.171Z,38.96
2023-04-19T07:51:16.325Z,38.69
2023-04-19T07:53:46.216Z,38.17
2023-04-19T07:56:13.142Z,35.55
2023-04-19T07:58:40.140Z,35.31
2023-04-19T08:01:06.921Z,35.48
2023-04-19T08:03:34.958Z,35.52
2023-04-19T08:06:02.720Z,35.07
2023-04-19T08:08:29.180Z,34.77
2023-04-19T08:10:55.625Z,34.78
2023-04-19T08:13:22.183Z,34.51
2023-04-19T08:18:18.425Z,34.15
2023-04-19T08:20:46.638Z,32.92
2023-04-19T08:23:21.537Z,32.94
2023-04-19T08:25:52.549Z,32.21
2023-04-19T08:28:19.153Z,31.14
2023-04-19T08:30:45.747Z,31.73
2023-04-19T08:33:12.409Z,32.75
2023-04-19T08:35:39.297Z,33.21
2023-04-19T08:38:05.779Z,31.86
2023-04-19T08:40:32.852Z,31.03
2023-04-19T08:42:59.728Z,30.39
2023-04-19T08:45:28.765Z,30.60
2023-04-19T08:48:01.540Z,31.15
2023-04-19T08:55:28.543Z,31.23
2023-04-19T08:57:56.905Z,29.03
2023-04-19T09:00:23.520Z,28.38
2023-04-19T09:02:51.871Z,29.21
2023-04-19T09:05:19.530Z,29.06
2023-04-19T09:07:47.026Z,28.55
2023-04-19T09:10:17.266Z,28.54
2023-04-19T09:12:45.140Z,28.56
2023-04-19T09:15:11.623Z,27.94
2023-04-19T09:17:40.177Z,27.89
2023-04-19T09:20:07.124Z,27.97
2023-04-19T09:22:33.800Z,28.13
2023-04-19T09:27:35.144Z,28.33
2023-04-19T09:30:04.286Z,28.72
2023-04-19T09:32:46.616Z,29.53
2023-04-19T09:35:13.127Z,29.61
2023-04-19T09:40:26.894Z,30.56
2023-04-19T09:48:04.459Z,30.60
2023-04-19T09:50:32.075Z,30.96
2023-04-19T09:53:00.079Z,31.67
2023-04-19T09:55:29.262Z,32.06
2023-04-19T09:57:56.929Z,31.82
2023-04-19T10:00:23.632Z,31.73
2023-04-19T10:02:56.385Z,31.29
2023-04-19T10:05:24.753Z,30.85
2023-04-19T10:07:53.283Z,29.93
2023-04-19T10:10:27.649Z,29.84
2023-04-19T10:15:50.122Z,28.74
2023-04-19T10:18:18.233Z,28.72
2023-04-19T10:20:55.269Z,28.30
2023-04-19T10:23:22.883Z,28.77
2023-04-19T10:25:49.454Z,26.01
2023-04-19T10:28:16.536Z,25.36
2023-04-19T10:30:54.404Z,24.73
2023-04-19T10:33:28.346Z,22.78
2023-04-19T10:35:59.215Z,20.09
2023-04-19T10:38:49.786Z,18.08
2023-04-19T10:41:18.520Z,16.89
2023-04-19T10:44:09.810Z,16.83
2023-04-19T10:46:38.558Z,16.43
2023-04-19T10:49:06.174Z,17.93
2023-04-19T10:51:33.757Z,19.80
2023-04-19T10:54:01.955Z,20.01
2023-04-19T10:56:34.790Z,20.55
2023-04-19T10:59:01.262Z,21.76
2023-04-19T11:01:41.082Z,22.80
2023-04-19T11:04:09.540Z,23.45
2023-04-19T11:06:38.279Z,24.50
2023-04-19T11:09:04.805Z,25.17
2023-04-19T11:11:35.063Z,25.35
2023-04-19T11:14:03.422Z,26.24
2023-04-19T11:16:44.510Z,27.56
2023-04-19T11:19:19.087Z,28.32
2023-04-19T11:21:46.810Z,28.76
2023-04-19T11:24:13.876Z,29.29
2023-04-19T11:26:42.972Z,29.78
2023-04-19T11:29:10.149Z,30.20
2023-04-19T11:31:36.706Z,30.60
2023-04-19T11:34:04.178Z,30.63
2023-04-19T11:36:33.501Z,30.80
2023-04-19T11:38:59.954Z,30.95
2023-04-19T11:41:26.457Z,30.74
2023-04-19T11:43:53.179Z,30.03
2023-04-19T11:46:19.697Z,29.73
2023-04-19T11:48:53.472Z,29.56
2023-04-19T11:51:20.885Z,29.78
2023-04-19T11:53:47.442Z,29.63
2023-04-19T11:56:13.934Z,29.87
2023-04-19T11:58:45.279Z,29.88
2023-04-19T12:01:12.553Z,30.54
2023-04-19T12:03:45.715Z,30.68
2023-04-19T12:06:17.921Z,30.76
2023-04-19T12:08:47.249Z,30.41
2023-04-19T12:11:15.170Z,30.98
2023-04-19T12:13:42.256Z,31.30
2023-04-19T12:16:08.880Z,31.82
2023-04-19T12:18:51.412Z,32.47
2023-04-19T12:21:25.390Z,33.01
2023-04-19T12:23:55.036Z,33.54
2023-04-19T12:26:21.528Z,33.92
2023-04-19T12:28:47.995Z,34.37
2023-04-19T12:31:14.529Z,34.69
2023-04-19T12:33:41.027Z,34.80
2023-04-19T12:36:07.838Z,34.84
2023-04-19T12:38:34.310Z,35.01
2023-04-19T12:41:01.198Z,34.90
2023-04-19T12:43:27.737Z,34.91
2023-04-19T12:45:54.317Z,34.94
2023-04-19T12:48:20.857Z,35.01
2023-04-19T12:50:47.356Z,34.93
2023-04-19T12:53:13.826Z,34.67
2023-04-19T12:55:40.277Z,34.58
2023-04-19T12:58:06.848Z,34.80
2023-04-19T13:00:33.329Z,34.98
2023-04-19T13:03:00.023Z,34.88
2023-04-19T13:05:26.831Z,35.11
2023-04-19T13:07:53.351Z,35.80
2023-04-19T13:10:19.899Z,35.84
2023-04-19T13:12:46.438Z,35.82
2023-04-19T13:15:12.939Z,36.53
2023-04-19T13:17:39.390Z,37.03
2023-04-19T13:20:06.778Z,37.44
2023-04-19T13:22:33.379Z,37.49
2023-04-19T13:24:59.866Z,37.28
2023-04-19T13:27:26.343Z,36.82
2023-04-19T13:29:55.213Z,36.56
2023-04-19T13:32:21.951Z,36.21
2023-04-19T13:34:48.633Z,35.73
2023-04-19T13:37:15.185Z,34.92
2023-04-19T13:39:42.960Z,34.48
2023-04-19T13:42:09.458Z,34.00
2023-04-19T13:44:35.954Z,34.02
2023-04-19T13:47:02.565Z,33.71
2023-04-19T13:49:29.122Z,33.40
2023-04-19T13:51:55.942Z,34.16
2023-04-19T13:54:22.464Z,34.86
2023-04-19T13:56:51.965Z,34.81
2023-04-19T13:59:18.922Z,35.14
2023-04-19T14:01:45.357Z,35.45
2023-04-19T14:04:12.011Z,35.80
2023-04-19T14:06:38.710Z,36.42
2023-04-19T14:09:05.207Z,36.67
2023-04-19T14:11:31.732Z,36.35
2023-04-19T14:13:58.220Z,36.01
2023-04-19T14:16:24.952Z,36.24
2023-04-19T14:18:51.538Z,36.43
2023-04-19T14:21:18.519Z,36.87
2023-04-19T14:23:45.037Z,38.07
2023-04-19T14:26:11.536Z,39.56
2023-04-19T14:28:37.995Z,40.62
2023-04-19T14:31:04.603Z,41.27
2023-04-19T14:33:31.172Z,41.65
2023-04-19T14:35:57.663Z,42.24
2023-04-19T14:38:24.149Z,42.74
2023-04-19T14:40:50.588Z,43.06
2023-04-19T14:43:17.167Z,43.19
2023-04-19T14:45:43.676Z,43.14
2023-04-19T14:48:10.304Z,43.28
2023-04-19T14:50:36.844Z,44.17
2023-04-19T14:53:03.390Z,44.79
2023-04-19T14:55:29.894Z,44.83
2023-04-19T14:57:56.385Z,44.86
2023-04-19T15:00:22.982Z,44.92
2023-04-19T15:02:49.516Z,45.15
2023-04-19T15:05:16.420Z,45.15
2023-04-19T15:07:43.113Z,45.14
2023-04-19T15:10:10.021Z,45.24
2023-04-19T15:12:36.556Z,45.31
2023-04-19T15:15:03.202Z,45.30
2023-04-19T15:17:29.705Z,45.75
2023-04-19T15:19:56.210Z,46.17
2023-04-19T15:22:22.731Z,46.15
2023-04-19T15:24:49.195Z,46.24
2023-04-19T15:27:15.735Z,46.36
2023-04-19T15:29:42.239Z,46.50
2023-04-19T15:32:08.825Z,46.48
2023-04-19T15:34:35.326Z,46.44
2023-04-19T15:37:01.828Z,46.51
2023-04-19T15:39:28.305Z,46.51
2023-04-19T15:41:54.809Z,46.28
2023-04-19T15:44:21.261Z,46.21
2023-04-19T15:46:47.764Z,46.24
2023-04-19T15:49:14.425Z,46.43
2023-04-19T15:51:41.156Z,46.74
2023-04-19T15:54:07.704Z,46.94
2023-04-19T15:56:34.178Z,46.99
2023-04-19T15:59:00.845Z,47.12
2023-04-19T16:01:27.434Z,47.25
2023-04-19T16:03:54.316Z,47.37
2023-04-19T16:06:22.135Z,47.26
2023-04-19T16:08:49.880Z,47.30
2023-04-19T16:11:16.417Z,47.28
2023-04-19T16:13:42.952Z,47.00
2023-04-19T16:16:09.429Z,47.10
2023-04-19T16:18:35.943Z,46.55
2023-04-19T16:21:03.469Z,45.62
2023-04-19T16:23:30.023Z,45.00
2023-04-19T16:25:56.904Z,44.98
2023-04-19T16:28:23.584Z,45.01
2023-04-19T16:30:50.057Z,45.08
2023-04-19T16:33:16.644Z,45.27
2023-04-19T16:35:43.175Z,45.25
2023-04-19T16:38:09.680Z,45.38
2023-04-19T16:40:36.198Z,45.56
2023-04-19T16:43:02.727Z,45.85
2023-04-19T16:45:29.276Z,46.12
2023-04-19T16:47:55.907Z,46.21
2023-04-19T16:50:22.458Z,46.54
2023-04-19T16:52:48.918Z,46.77
2023-04-19T16:55:15.512Z,46.96
2023-04-19T16:57:42.065Z,47.19
2023-04-19T17:00:09.294Z,47.23
2023-04-19T17:02:35.962Z,47.47
2023-04-19T17:05:02.588Z,47.49
2023-04-19T17:07:29.292Z,47.91
2023-04-19T17:09:55.928Z,48.17
2023-04-19T17:12:22.513Z,48.20
2023-04-19T17:14:49.039Z,48.62
2023-04-19T17:17:15.874Z,48.78
2023-04-19T17:19:42.299Z,49.03
2023-04-19T17:22:08.773Z,49.49
2023-04-19T17:24:35.264Z,49.45
2023-04-19T17:27:01.767Z,49.36
2023-04-19T17:29:28.390Z,49.58
2023-04-19T17:31:54.900Z,49.68
2023-04-19T17:34:21.439Z,49.97
2023-04-19T17:36:47.952Z,50.18
2023-04-19T17:39:14.622Z,50.49
2023-04-19T17:41:41.432Z,50.74
2023-04-19T17:44:07.963Z,51.00
2023-04-19T17:46:34.524Z,51.20
2023-04-19T17:49:01.025Z,51.41
2023-04-19T17:51:27.572Z,51.55
2023-04-19T17:53:54.119Z,51.70
2023-04-19T17:56:20.626Z,51.85
2023-04-19T17:58:47.073Z,51.97
2023-04-19T18:01:53.149Z,52.17
2023-04-19T18:04:20.120Z,52.39
2023-04-19T18:06:46.799Z,52.77
2023-04-19T18:09:13.422Z,53.07
2023-04-19T18:11:40.498Z,53.49
2023-04-19T18:14:06.982Z,53.87
2023-04-19T18:16:33.583Z,53.93
2023-04-19T18:19:00.100Z,54.20
2023-04-19T18:21:26.708Z,54.42
2023-04-19T18:23:53.347Z,54.68
2023-04-19T18:26:20.583Z,54.70
2023-04-19T18:28:47.490Z,54.81
2023-04-19T18:31:13.984Z,55.17
2023-04-19T18:33:40.491Z,55.29
2023-04-19T18:36:07.059Z,55.60
2023-04-19T18:38:33.556Z,55.72
2023-04-19T18:41:00.011Z,55.87
2023-04-19T18:43:27.992Z,56.28
2023-04-19T18:45:55.584Z,56.36
2023-04-19T18:48:23.879Z,56.69
2023-04-19T18:50:50.660Z,56.85
2023-04-19T18:53:17.128Z,56.91
2023-04-19T18:55:43.641Z,57.18
2023-04-19T18:58:10.128Z,57.34
2023-04-19T19:00:36.619Z,57.87
2023-04-19T19:03:04.022Z,58.01
2023-04-19T19:05:30.814Z,58.06
2023-04-19T19:07:57.849Z,58.15
2023-04-19T19:12:53.082Z,58.67
2023-04-19T19:15:19.602Z,58.92
2023-04-19T19:17:49.779Z,58.98
2023-04-19T19:20:20.014Z,58.97
2023-04-19T19:22:46.565Z,59.14
2023-04-19T19:25:13.137Z,59.13
2023-04-19T19:27:40.086Z,59.43
2023-04-19T19:30:07.417Z,59.37
2023-04-19T19:32:34.064Z,59.61
2023-04-19T19:35:02.978Z,59.70
2023-04-19T19:37:31.254Z,59.84
2023-04-19T19:40:02.809Z,59.90
2023-04-19T19:42:31.096Z,60.11
2023-04-19T19:44:57.547Z,60.00
2023-04-19T19:47:25.128Z,60.14
2023-04-19T19:50:34.998Z,60.29
2023-04-19T19:52:38.433Z,60.52
2023-04-19T19:55:05.714Z,60.66
2023-04-19T19:58:16.338Z,60.86
2023-04-19T20:00:37.563Z,60.93
2023-04-19T20:03:06.688Z,61.37
2023-04-19T20:05:33.765Z,61.47
2023-04-19T20:08:10.143Z,61.59
2023-04-19T20:10:38.253Z,61.83
2023-04-19T20:13:05.103Z,61.94
2023-04-19T20:15:32.128Z,61.87
2023-04-19T20:17:58.752Z,62.00
2023-04-19T20:20:25.265Z,62.08
2023-04-19T20:22:51.778Z,62.17
2023-04-19T20:25:18.263Z,62.07
2023-04-19T20:27:44.799Z,62.20
2023-04-19T20:30:11.780Z,62.24
2023-04-19T20:32:38.498Z,62.50
2023-04-19T20:35:05.446Z,62.59
2023-04-19T20:37:31.943Z,62.86
2023-04-19T20:39:58.407Z,62.90
2023-04-19T20:42:24.976Z,62.96
2023-04-19T20:44:51.470Z,63.20
2023-04-19T20:47:17.900Z,63.31
2023-04-19T20:49:44.359Z,63.23
2023-04-19T20:52:10.817Z,63.39
2023-04-19T20:54:37.365Z,63.38
2023-04-19T20:57:03.851Z,63.52
2023-04-19T20:59:31.022Z,63.57
2023-04-19T21:01:58.422Z,63.62
2023-04-19T21:04:25.103Z,63.76
2023-04-19T21:06:51.745Z,63.90
2023-04-19T21:09:18.491Z,63.89
2023-04-19T21:11:45.190Z,63.84
2023-04-19T21:14:11.706Z,63.81
2023-04-19T21:16:38.214Z,63.97
2023-04-19T21:19:04.721Z,63.99
2023-04-19T21:21:32.496Z,63.87
2023-04-19T21:23:59.180Z,63.82
2023-04-19T21:26:25.683Z,64.01
2023-04-19T21:28:52.142Z,63.79
2023-04-19T21:31:18.676Z,63.88
2023-04-19T21:33:45.141Z,64.14
2023-04-19T21:36:11.814Z,64.22
2023-04-19T21:38:38.395Z,64.08
2023-04-19T21:41:06.635Z,64.16
2023-04-19T21:43:33.161Z,64.22
2023-04-19T21:45:59.841Z,64.21
2023-04-19T21:48:26.304Z,64.37
2023-04-19T21:50:53.003Z,64.49
2023-04-19T21:53:19.450Z,64.52
2023-04-19T21:55:48.852Z,64.53
2023-04-19T21:58:15.345Z,64.46
2023-04-19T22:00:41.898Z,64.34
2023-04-19T22:03:08.909Z,64.46
2023-04-19T22:05:35.563Z,64.77
2023-04-19T22:08:02.704Z,64.83
2023-04-19T22:10:29.958Z,64.85
2023-04-19T22:12:58.878Z,64.88
2023-04-19T22:15:26.527Z,64.96
2023-04-19T22:17:53.054Z,65.03
2023-04-19T22:20:19.644Z,64.98
2023-04-19T22:22:46.104Z,64.95
2023-04-19T22:25:12.644Z,65.08
2023-04-19T22:27:39.120Z,65.18
2023-04-19T22:30:06.329Z,65.08
2023-04-19T22:32:32.926Z,65.20
2023-04-19T22:34:59.454Z,65.45
2023-04-19T22:37:25.910Z,65.31
2023-04-19T22:39:52.395Z,65.45
2023-04-19T22:42:18.854Z,65.62
2023-04-19T22:44:45.316Z,65.67
2023-04-19T22:47:11.809Z,65.80
2023-04-19T22:49:38.348Z,65.91
2023-04-19T22:52:04.834Z,66.07
2023-04-19T22:54:31.318Z,66.10
2023-04-19T22:56:57.781Z,66.19
2023-04-19T22:59:24.272Z,66.27
2023-04-19T23:01:50.950Z,66.22
2023-04-19T23:04:17.562Z,66.28
2023-04-19T23:06:44.245Z,66.38
2023-04-19T23:09:10.972Z,66.38
2023-04-19T23:11:37.423Z,66.61
2023-04-19T23:14:04.012Z,66.90
2023-04-19T23:16:30.463Z,67.33
2023-04-19T23:18:56.928Z,67.59
2023-04-19T23:21:23.392Z,67.99
2023-04-19T23:23:50.263Z,68.18
2023-04-19T23:26:16.745Z,68.22
2023-04-19T23:28:43.260Z,68.45
2023-04-19T23:31:09.786Z,68.54
2023-04-19T23:33:36.260Z,68.53
2023-04-19T23:36:02.927Z,68.67
2023-04-19T23:38:29.418Z,68.84
2023-04-19T23:40:55.882Z,68.91
2023-04-19T23:43:22.339Z,69.12
2023-04-19T23:45:48.836Z,69.19
2023-04-19T23:48:15.311Z,69.24
2023-04-19T23:50:41.765Z,69.45
2023-04-19T23:53:08.227Z,69.53
2023-04-19T23:55:34.683Z,69.89
2023-04-19T23:58:01.166Z,69.90
